Pagrindinis puslapis
METAR-TAF:

METAR-TAF

Oro uostai :

David Wayne Hooks Memorial Airport

Hiustonas-Tomball, Teksasas, Jungtinės Amerikos Valstijos

platuma: 30-04-03N, ilguma: 095-33-22W, Aukštis: 46 m

Dabartinis oras

Ataskaita buvo paskelbta 17 minutes, ne 02:53 UTC
Vėjas 5 kt iš Pietų
Temperatūra 22°C
Drėgmė 94%
Slėgis 1014 hPa
Matomumas: 16.1 km
Mažai debesys ne aukštis 1300 ft

METAR: KDWH 170253Z 17005KT 10SM FEW013 22/21 A2994 RMK AO2 SLP136 T02220206 53004

Laikas: 22:10 (03:10 UTC)


TAF: trūkstamas

Orai ataskaitas ir orų prognozės (METAR, TAF).

turimą stotys yra geltonos ir raudonos taškus žemėlapyje.

Perkelti pele per norėdami pamatyti stoties vardą.

Tada spustelėkite, norėdami matyti oro stebėjimo ir prognozės.

Norėdami pakeisti žemėlapį: spustelėkite ant žalios mygtukų su juodo kryžiaus žemyn,; žalią mygtuką su brūkšneliu, jei norite nutolinti; arba žalių rodyklių gretimoms žemėlapius.


METAR-TAF: